• Join FlightAware (Why Join?)
  • Login
  • US Flag 
10:58PM EDT


 

Airport Tracker/Info


-or-


 

Live Flight TrackerFlight Track Log ✈ ASA46 ✈ 08-May-2013 ✈ PABE / BET - PANC

Flight Track Log - Related Links

Times and Time Zones

All times are in EDT time to prevent confusion due to time zone crossing. See the ASA46 flight status page for this flight to view local times or setup timezone preferences in your user account.

Time Position Orientation Groundspeed Altitude Reporting Facility
EDT Latitude Longitude Course Direction KTS MPH feet Rate Location/Type
12:44AM 60.7833 -161.6833 85° East 200 230 3,600  Level Anchorage Center
12:45AM 60.8000 -161.5500 76° East 220 253 6,900 3,060 Climbing Anchorage Center
12:46AM 60.8000 -161.3833 90° East 260 299 9,800 2,700 Climbing Anchorage Center
12:47AM 60.8167 -161.2000 79° East 310 357 12,400 3,000 Climbing Anchorage Center
12:48AM 60.8455 -160.3825 85° East  Level FlightAware Approximate
12:48AM 60.8167 -161.0167 90° East 320 368 15,900  Level Anchorage Center
12:49AM 60.8560 -160.1395 85° East  Level FlightAware Approximate
12:49AM 60.8333 -160.8000 81° East 360 414 18,800  Level Anchorage Center
12:50AM 60.8661 -159.8963 85° East  Level FlightAware Approximate
12:50AM 60.8333 -160.6000 90° East 370 426 21,600  Level Anchorage Center
12:51AM 60.8500 -160.3833 81° East 380 437 23,900 2,100 Climbing Anchorage Center
12:52AM 60.8667 -160.1333 82° East 420 483 25,900 2,160 Climbing Anchorage Center
12:53AM 60.8667 -159.8667 90° East 450 518 28,300 1,980 Climbing Anchorage Center
12:54AM 60.8833 -159.6000 83° East 460 529 29,900 1,800 Climbing Anchorage Center
12:55AM 60.9000 -159.3333 83° East 470 541 31,900 1,500 Climbing Anchorage Center
12:56AM 60.9000 -159.0667 90° East 460 529 33,000 540 Climbing Anchorage Center
12:57AM 60.9167 -158.8000 83° East 450 518 33,000  Level Anchorage Center
12:58AM 60.9167 -158.5333 90° East 460 529 33,000  Level Anchorage Center
12:59AM 60.9167 -158.2833 90° East 460 529 33,000  Level Anchorage Center
01:00AM 60.9333 -158.0667 81° East 460 529 33,000  Level Anchorage Center
01:01AM 60.9333 -157.7500 90° East 460 529 33,000  Level Anchorage Center
01:02AM 60.9500 -157.4833 83° East 460 529 33,000  Level Anchorage Center
01:03AM 60.9500 -157.2167 90° East 460 529 33,000  Level Anchorage Center
01:04AM 60.9500 -156.9500 90° East 460 529 33,000  Level Anchorage Center
01:05AM 60.9667 -156.6833 83° East 460 529 33,000  Level Anchorage Center
01:06AM 60.9667 -156.4167 90° East 470 541 33,000  Level Anchorage Center
01:07AM 60.9667 -156.1500 90° East 460 529 33,000  Level Anchorage Center
01:08AM 60.9667 -155.8833 90° East 470 541 33,000  Level Anchorage Center
01:09AM 60.9667 -155.6667 90° East 460 529 33,000  Level Anchorage Center
01:10AM 60.9833 -155.3500 84° East 460 529 33,000  Level Anchorage Center
01:11AM 60.9833 -155.1000 90° East 460 529 33,000  Level Anchorage Center
01:12AM 60.9833 -154.8333 90° East 440 506 33,000  Level Anchorage Center
01:13AM 60.9833 -154.5667 90° East 470 541 33,000  Level Anchorage Center
01:14AM 60.9833 -154.3000 90° East 460 529 33,000  Level Anchorage Center
01:15AM 60.9833 -154.0333 90° East 460 529 33,000  Level Anchorage Center
01:16AM 60.9833 -153.7667 90° East 460 529 33,000  Level Anchorage Center
01:17AM 60.9833 -153.5000 90° East 460 529 33,000 -600 Level Anchorage Center
01:18AM 60.9833 -153.2500 90° East 450 518 31,900 -2,040 Descending Anchorage Center
01:19AM 60.9667 -152.9833 97° East 460 529 29,000 -2,820 Descending Anchorage Center
01:20AM 60.9667 -152.7333 90° East 440 506 26,300 -2,580 Descending Anchorage Center
01:21AM 60.9667 -152.4833 90° East 430 495 23,900 -2,340 Descending Anchorage Center
01:22AM 60.9667 -152.2500 90° East 410 472 21,700 -2,280 Descending Anchorage Center
01:23AM 60.9500 -152.0167 98° East 390 449 19,400 -2,100 Descending Anchorage Center
01:24AM 60.9500 -151.8000 90° East 370 426 17,500 -2,160 Descending Anchorage Center
01:25AM 60.9500 -151.5833 90° East 360 414 15,100 -2,400 Descending Anchorage Center
01:27AM 60.9403 -151.3268 95° East  Level FlightAware Approximate
01:34AM 61.1667 -149.9833 65° Northeast  Level FlightAware Approximate
01:35AM 61.1741 -149.9982 65° Northeast  Level Estimated
01:36AM 61.1741 -149.9982 65° Northeast  Level Estimated
01:37AM 61.1741 -149.9982 65° Northeast  Level Estimated
01:38AM 61.1741 -149.9982 65° Northeast  Level Estimated
01:39AM 61.1741 -149.9982 65° Northeast  Level Estimated
01:40AM 61.1741 -149.9982 65° Northeast  Level Estimated
01:41AM 61.1741 -149.9982 65° Northeast  Level Estimated
01:42AM 61.1741 -149.9982 65° Northeast  Level Estimated
01:43AM 61.1741 -149.9982 65° Northeast  Level Estimated
01:44AM 61.1741 -149.9982 65° Northeast  Level Estimated
01:45AM 61.1741 -149.9982 65° Northeast  Level Estimated
01:46AM 61.1741 -149.9982 65° Northeast  Level Estimated